createdAt,value
2017-08-09T00:02:03.945Z,69.10
2017-08-09T00:04:30.391Z,68.90
2017-08-09T00:06:56.829Z,68.60
2017-08-09T00:09:23.275Z,68.00
2017-08-09T00:11:49.738Z,67.50
2017-08-09T00:14:16.940Z,68.80
2017-08-09T00:16:43.400Z,68.40
2017-08-09T00:19:10.027Z,68.20
2017-08-09T00:21:36.506Z,68.10
2017-08-09T00:24:02.964Z,67.60
2017-08-09T00:26:29.419Z,67.30
2017-08-09T00:28:55.876Z,66.70
2017-08-09T00:31:22.327Z,66.80
2017-08-09T00:33:49.535Z,66.40
2017-08-09T00:36:16.005Z,66.30
2017-08-09T00:38:42.475Z,66.10
2017-08-09T00:41:08.960Z,65.80
2017-08-09T00:43:35.415Z,65.80
2017-08-09T00:46:02.605Z,65.50
2017-08-09T00:48:29.054Z,65.50
2017-08-09T00:50:55.505Z,65.20
2017-08-09T00:53:21.975Z,65.20
2017-08-09T00:55:49.179Z,65.80
2017-08-09T00:58:15.603Z,65.80
2017-08-09T01:00:42.288Z,65.30
2017-08-09T01:03:09.520Z,66.50
2017-08-09T01:05:35.997Z,66.40
2017-08-09T01:08:03.211Z,66.80
2017-08-09T01:10:30.417Z,66.90
2017-08-09T01:12:56.877Z,66.70
2017-08-09T01:15:23.330Z,66.80
2017-08-09T01:17:49.773Z,66.70
2017-08-09T01:20:16.939Z,67.00
2017-08-09T01:22:44.172Z,66.70
2017-08-09T01:25:11.377Z,66.60
2017-08-09T01:27:37.813Z,66.60
2017-08-09T01:30:04.261Z,67.60
2017-08-09T01:32:30.756Z,67.40
2017-08-09T01:34:57.220Z,68.60
2017-08-09T01:37:23.754Z,69.50
2017-08-09T01:39:50.214Z,69.30
2017-08-09T01:42:16.703Z,68.50
2017-08-09T01:44:43.174Z,68.30
2017-08-09T01:47:09.625Z,68.00
2017-08-09T01:49:36.119Z,68.00
2017-08-09T01:52:02.607Z,67.70
2017-08-09T01:54:29.838Z,68.00
2017-08-09T01:56:56.345Z,67.80
2017-08-09T01:59:22.813Z,67.70
2017-08-09T02:01:49.308Z,67.80
2017-08-09T02:04:15.811Z,67.70
2017-08-09T02:06:42.303Z,67.70
2017-08-09T02:09:08.824Z,69.00
2017-08-09T02:11:35.285Z,70.30
2017-08-09T02:14:01.820Z,71.30
2017-08-09T02:16:28.251Z,72.00
2017-08-09T02:18:54.744Z,71.60
2017-08-09T02:21:21.248Z,71.00
2017-08-09T02:23:47.756Z,70.50
2017-08-09T02:26:14.967Z,70.50
2017-08-09T02:28:41.414Z,70.20
2017-08-09T02:31:07.857Z,70.30
2017-08-09T02:33:34.301Z,70.00
2017-08-09T02:36:00.762Z,70.30
2017-08-09T02:38:27.923Z,70.30
2017-08-09T02:40:54.383Z,70.30
2017-08-09T02:43:20.885Z,70.40
2017-08-09T02:45:47.329Z,70.80
2017-08-09T02:48:13.776Z,71.30
2017-08-09T02:50:40.262Z,71.80
2017-08-09T02:53:06.715Z,72.30
2017-08-09T02:55:33.902Z,73.70
2017-08-09T02:58:00.356Z,73.30
2017-08-09T03:00:26.868Z,72.90
2017-08-09T03:02:53.326Z,72.60
2017-08-09T03:05:19.763Z,71.90
2017-08-09T03:07:46.243Z,72.00
2017-08-09T03:10:12.718Z,71.60
2017-08-09T03:12:39.165Z,71.10
2017-08-09T03:15:05.620Z,71.10
2017-08-09T03:17:32.169Z,71.60
2017-08-09T03:19:59.347Z,70.90
2017-08-09T03:22:25.763Z,70.90
2017-08-09T03:24:52.955Z,70.80
2017-08-09T03:27:19.455Z,70.80
2017-08-09T03:29:45.903Z,70.70
2017-08-09T03:32:12.362Z,70.90
2017-08-09T03:34:38.830Z,71.30
2017-08-09T03:37:05.280Z,71.50
2017-08-09T03:39:32.473Z,71.30
2017-08-09T03:41:58.935Z,71.30
2017-08-09T03:44:25.392Z,71.40
2017-08-09T03:46:52.581Z,71.50
2017-08-09T03:49:19.017Z,71.50
2017-08-09T03:51:45.490Z,71.50
2017-08-09T03:54:11.929Z,71.50
2017-08-09T03:56:38.399Z,71.80
2017-08-09T03:59:04.866Z,71.30
2017-08-09T04:01:31.299Z,71.60
2017-08-09T04:03:57.752Z,71.50
2017-08-09T04:06:24.216Z,71.40
2017-08-09T04:08:51.414Z,71.90
2017-08-09T04:11:17.851Z,71.80
2017-08-09T04:13:44.291Z,71.70
2017-08-09T04:16:10.758Z,71.40
2017-08-09T04:18:37.978Z,72.10
2017-08-09T04:21:04.502Z,71.50
2017-08-09T04:23:30.957Z,71.60
2017-08-09T04:25:57.405Z,71.70
2017-08-09T04:28:24.677Z,71.50
2017-08-09T04:30:51.158Z,71.50
2017-08-09T04:33:17.664Z,71.80
2017-08-09T04:35:44.116Z,72.10
2017-08-09T04:38:10.555Z,71.80
2017-08-09T04:40:37.016Z,71.50
2017-08-09T04:43:03.471Z,71.40
2017-08-09T04:45:30.672Z,72.50
2017-08-09T04:47:57.126Z,71.80
2017-08-09T04:50:23.589Z,72.10
2017-08-09T04:52:50.785Z,73.60
2017-08-09T04:55:17.228Z,73.00
2017-08-09T04:57:43.675Z,73.30
2017-08-09T05:00:10.182Z,73.00
2017-08-09T05:02:36.645Z,73.00
2017-08-09T05:05:03.102Z,72.80
2017-08-09T05:07:29.546Z,72.70
2017-08-09T05:09:56.756Z,72.70
2017-08-09T05:12:23.224Z,72.30
2017-08-09T05:14:49.676Z,72.10
2017-08-09T05:17:16.191Z,72.10
2017-08-09T05:19:43.405Z,72.70
2017-08-09T05:22:09.872Z,72.40
2017-08-09T05:24:36.349Z,72.10
2017-08-09T05:27:02.805Z,71.80
2017-08-09T05:29:29.267Z,71.40
2017-08-09T05:31:55.776Z,71.50
2017-08-09T05:34:22.320Z,70.60
2017-08-09T05:36:48.829Z,70.20
2017-08-09T05:39:15.283Z,70.10
2017-08-09T05:41:41.766Z,69.80
2017-08-09T05:44:08.993Z,69.50
2017-08-09T05:46:35.431Z,69.50
2017-08-09T05:49:02.655Z,69.70
2017-08-09T05:51:29.087Z,70.30
2017-08-09T05:53:55.544Z,69.50
2017-08-09T05:56:21.997Z,69.50
2017-08-09T05:58:49.208Z,69.60
2017-08-09T06:01:15.675Z,69.60
2017-08-09T06:03:42.886Z,69.40
2017-08-09T06:06:09.363Z,69.40
2017-08-09T06:08:36.559Z,69.80
2017-08-09T06:11:02.999Z,69.30
2017-08-09T06:13:29.432Z,69.30
2017-08-09T06:15:55.879Z,69.10
2017-08-09T06:18:22.356Z,68.80
2017-08-09T06:20:49.535Z,68.50
2017-08-09T06:23:15.999Z,68.40
2017-08-09T06:25:42.481Z,67.70
2017-08-09T06:28:08.935Z,67.20
2017-08-09T06:30:35.420Z,67.30
2017-08-09T06:33:02.200Z,66.00
2017-08-09T06:35:28.695Z,66.40
2017-08-09T06:37:55.159Z,65.40
2017-08-09T06:40:22.362Z,64.00
2017-08-09T06:42:48.820Z,63.90
2017-08-09T06:45:15.274Z,64.00
2017-08-09T06:47:42.535Z,64.10
2017-08-09T06:50:09.016Z,63.50
2017-08-09T06:52:35.461Z,63.20
2017-08-09T06:55:01.892Z,62.40
2017-08-09T06:57:28.318Z,62.50
2017-08-09T06:59:54.800Z,62.40
2017-08-09T07:02:21.281Z,62.40
2017-08-09T07:04:47.741Z,62.00
2017-08-09T07:07:14.200Z,62.30
2017-08-09T07:09:41.388Z,62.70
2017-08-09T07:12:07.836Z,62.70
2017-08-09T07:14:34.319Z,62.70
2017-08-09T07:17:00.795Z,63.20
2017-08-09T07:19:27.287Z,62.50
2017-08-09T07:21:54.459Z,63.30
2017-08-09T07:24:20.916Z,63.30
2017-08-09T07:26:47.415Z,63.10
2017-08-09T07:29:13.886Z,62.30
2017-08-09T07:31:40.319Z,61.40
2017-08-09T07:34:07.179Z,60.40
2017-08-09T07:36:33.775Z,59.40
2017-08-09T07:39:00.262Z,59.60
2017-08-09T07:41:26.753Z,58.60
2017-08-09T07:43:53.220Z,57.80
2017-08-09T07:46:19.697Z,57.60
2017-08-09T07:48:46.899Z,58.80
2017-08-09T07:51:13.383Z,58.80
2017-08-09T07:53:39.835Z,58.90
2017-08-09T07:56:06.297Z,58.60
2017-08-09T07:58:33.844Z,58.70
2017-08-09T08:01:00.321Z,59.10
2017-08-09T08:03:27.503Z,59.40
2017-08-09T08:05:53.942Z,59.40
2017-08-09T08:08:20.425Z,59.30
2017-08-09T08:10:47.650Z,59.80
2017-08-09T08:13:14.097Z,59.80
2017-08-09T08:15:40.584Z,60.20
2017-08-09T08:18:07.038Z,58.80
2017-08-09T08:20:33.462Z,59.50
2017-08-09T08:22:59.913Z,57.80
2017-08-09T08:25:26.389Z,57.80
2017-08-09T08:27:52.879Z,57.30
2017-08-09T08:30:19.337Z,56.70
2017-08-09T08:32:45.806Z,57.30
2017-08-09T08:35:13.060Z,57.10
2017-08-09T08:37:39.522Z,57.10
2017-08-09T08:40:05.968Z,58.00
2017-08-09T08:42:32.452Z,55.60
2017-08-09T08:44:59.626Z,58.10
2017-08-09T08:47:26.090Z,58.00
2017-08-09T08:49:52.541Z,58.10
2017-08-09T08:52:18.986Z,58.50
2017-08-09T08:54:45.450Z,58.90
2017-08-09T08:57:12.646Z,57.30
2017-08-09T08:59:39.104Z,57.30
2017-08-09T09:02:05.569Z,55.00
2017-08-09T09:04:32.807Z,54.90
2017-08-09T09:06:59.987Z,55.00
2017-08-09T09:09:26.443Z,55.00
2017-08-09T09:11:52.944Z,55.60
2017-08-09T09:14:19.405Z,55.20
2017-08-09T09:16:45.879Z,55.30
2017-08-09T09:19:12.320Z,55.60
2017-08-09T09:21:38.739Z,54.90
2017-08-09T09:24:05.200Z,54.00
2017-08-09T09:26:32.398Z,52.50
2017-08-09T09:28:58.905Z,52.30
2017-08-09T09:31:25.360Z,52.60
2017-08-09T09:33:51.836Z,50.30
2017-08-09T09:36:18.373Z,51.60
2017-08-09T09:38:44.835Z,52.00
2017-08-09T09:41:12.063Z,52.80
2017-08-09T09:43:39.275Z,51.50
2017-08-09T09:46:05.720Z,51.40
2017-08-09T09:48:32.163Z,50.80
2017-08-09T09:50:58.622Z,49.20
2017-08-09T09:53:25.847Z,49.50
2017-08-09T09:55:52.305Z,49.50
2017-08-09T09:58:18.789Z,48.90
2017-08-09T10:00:45.261Z,48.90
2017-08-09T10:03:11.699Z,47.90
2017-08-09T10:05:38.163Z,47.90
2017-08-09T10:08:05.347Z,46.80
2017-08-09T10:10:31.773Z,46.90
2017-08-09T10:12:58.207Z,47.80
2017-08-09T10:15:24.660Z,45.50
2017-08-09T10:17:51.764Z,46.70
2017-08-09T10:20:18.200Z,46.40
2017-08-09T10:22:44.651Z,47.50
2017-08-09T10:25:11.112Z,46.90
2017-08-09T10:27:37.561Z,48.70
2017-08-09T10:30:04.020Z,46.60
2017-08-09T10:32:31.220Z,45.00
2017-08-09T10:34:57.673Z,45.00
2017-08-09T10:37:24.205Z,45.40
2017-08-09T10:39:50.660Z,44.80
2017-08-09T10:42:17.104Z,44.80
2017-08-09T10:44:43.552Z,45.00
2017-08-09T10:47:10.758Z,43.70
2017-08-09T10:49:37.203Z,43.70
2017-08-09T10:52:03.651Z,44.10
2017-08-09T10:54:30.121Z,43.90
2017-08-09T10:56:56.576Z,44.20
2017-08-09T10:59:23.045Z,43.90
2017-08-09T11:01:49.500Z,43.60
2017-08-09T11:04:16.737Z,41.40
2017-08-09T11:09:18.020Z,40.70
2017-08-09T11:11:44.481Z,42.40
2017-08-09T11:14:10.955Z,41.70
2017-08-09T11:16:37.422Z,42.20
2017-08-09T11:19:04.625Z,42.30
2017-08-09T11:21:31.085Z,42.30
2017-08-09T11:23:57.520Z,41.50
2017-08-09T11:26:23.989Z,41.60
2017-08-09T11:28:50.446Z,40.40
2017-08-09T11:31:16.904Z,40.50
2017-08-09T11:33:43.357Z,40.80
2017-08-09T11:36:09.845Z,41.50
2017-08-09T11:38:36.375Z,41.40
2017-08-09T11:41:02.840Z,40.20
2017-08-09T11:43:29.312Z,41.50
2017-08-09T11:45:56.512Z,40.30
2017-08-09T11:48:22.985Z,40.20
2017-08-09T11:50:49.470Z,39.90
2017-08-09T11:53:15.947Z,40.10
2017-08-09T11:55:42.406Z,38.60
2017-08-09T11:58:08.864Z,38.90
2017-08-09T12:00:35.347Z,37.90
2017-08-09T12:03:01.806Z,38.80
2017-08-09T12:05:29.003Z,39.00
2017-08-09T12:07:55.482Z,38.90
2017-08-09T12:10:21.990Z,39.10
2017-08-09T12:12:48.463Z,39.20
2017-08-09T12:15:14.990Z,37.50
2017-08-09T12:17:41.480Z,36.00
2017-08-09T12:20:08.569Z,36.80
2017-08-09T12:22:35.081Z,36.20
2017-08-09T12:25:01.592Z,36.30
2017-08-09T12:27:28.040Z,36.60
2017-08-09T12:29:54.492Z,35.30
2017-08-09T12:32:20.965Z,35.30
2017-08-09T12:34:47.409Z,35.10
2017-08-09T12:37:13.856Z,35.50
2017-08-09T12:39:40.344Z,36.30
2017-08-09T12:42:06.856Z,35.20
2017-08-09T12:44:33.334Z,36.30
2017-08-09T12:46:59.778Z,35.80
2017-08-09T12:49:26.220Z,35.80
2017-08-09T12:51:52.681Z,36.30
2017-08-09T12:54:19.133Z,35.40
2017-08-09T12:56:45.611Z,35.80
2017-08-09T12:59:12.061Z,35.30
2017-08-09T13:01:38.522Z,35.40
2017-08-09T13:04:04.985Z,35.10
2017-08-09T13:06:32.192Z,35.10
2017-08-09T13:08:58.684Z,35.10
2017-08-09T13:11:26.045Z,35.80
2017-08-09T13:13:52.510Z,36.30
2017-08-09T13:16:18.959Z,36.10
2017-08-09T13:18:45.420Z,35.90
2017-08-09T13:21:11.868Z,36.40
2017-08-09T13:23:38.312Z,36.40
2017-08-09T13:26:05.544Z,35.10
2017-08-09T13:28:32.032Z,35.10
2017-08-09T13:30:58.481Z,36.00
2017-08-09T13:33:24.994Z,35.30
2017-08-09T13:35:51.476Z,36.40
2017-08-09T13:38:17.929Z,36.40
2017-08-09T13:40:44.396Z,35.90
2017-08-09T13:43:10.872Z,35.90
2017-08-09T13:45:37.420Z,35.90
2017-08-09T13:48:04.621Z,36.50
2017-08-09T13:50:31.163Z,36.50
2017-08-09T13:52:57.637Z,36.80
2017-08-09T13:55:24.367Z,35.60
2017-08-09T13:57:50.810Z,36.00
2017-08-09T14:00:17.271Z,36.30
2017-08-09T14:02:43.719Z,37.30
2017-08-09T14:05:10.188Z,37.70
2017-08-09T14:07:36.761Z,37.60
2017-08-09T14:10:03.232Z,38.10
2017-08-09T14:12:29.713Z,38.60
2017-08-09T14:14:56.159Z,38.30
2017-08-09T14:17:22.628Z,38.40
2017-08-09T14:19:49.053Z,38.90
2017-08-09T14:22:15.502Z,39.10
2017-08-09T14:24:41.948Z,39.90
2017-08-09T14:27:08.382Z,40.10
2017-08-09T14:29:34.849Z,40.40
2017-08-09T14:32:01.322Z,40.90
2017-08-09T14:34:27.802Z,41.10
2017-08-09T14:36:54.278Z,40.50
2017-08-09T14:39:20.768Z,40.50
2017-08-09T14:41:47.232Z,41.20
2017-08-09T14:44:13.697Z,41.30
2017-08-09T14:46:40.174Z,41.00
2017-08-09T14:49:06.634Z,41.50
2017-08-09T14:51:33.154Z,41.60
2017-08-09T14:53:59.625Z,41.70
2017-08-09T14:56:26.091Z,41.30
2017-08-09T14:58:52.547Z,41.50
2017-08-09T15:01:18.999Z,41.60
2017-08-09T15:03:45.427Z,41.70
2017-08-09T15:06:11.859Z,41.90
2017-08-09T15:08:38.304Z,42.00
2017-08-09T15:11:05.487Z,41.00
2017-08-09T15:13:31.937Z,41.00
2017-08-09T15:15:58.407Z,40.90
2017-08-09T15:18:24.876Z,41.00
2017-08-09T15:20:51.370Z,41.10
2017-08-09T15:23:24.944Z,40.90
2017-08-09T15:25:51.415Z,40.60
2017-08-09T15:28:17.904Z,40.60
2017-08-09T15:30:44.400Z,40.30
2017-08-09T15:33:10.897Z,41.00
2017-08-09T15:35:37.376Z,40.50
2017-08-09T15:38:04.569Z,40.40
2017-08-09T15:40:31.072Z,40.10
2017-08-09T15:42:57.593Z,40.50
2017-08-09T15:45:24.808Z,40.50
2017-08-09T15:47:51.325Z,40.50
2017-08-09T15:50:17.807Z,40.20
2017-08-09T15:52:44.298Z,40.40
2017-08-09T15:55:10.741Z,40.30
2017-08-09T15:57:37.195Z,40.70
2017-08-09T16:00:03.740Z,40.80
2017-08-09T16:02:30.943Z,40.80
2017-08-09T16:04:57.426Z,40.80
2017-08-09T16:07:23.913Z,40.90
2017-08-09T16:09:50.382Z,41.10
2017-08-09T16:12:16.852Z,41.00
2017-08-09T16:14:44.043Z,41.30
2017-08-09T16:17:10.517Z,41.30
2017-08-09T16:19:36.940Z,41.50
2017-08-09T16:22:03.633Z,41.70
2017-08-09T16:24:30.108Z,41.50
2017-08-09T16:26:56.575Z,40.80
2017-08-09T16:29:23.757Z,41.50
2017-08-09T16:31:50.199Z,41.50
2017-08-09T16:34:16.932Z,41.50
2017-08-09T16:36:43.432Z,41.70
2017-08-09T16:39:10.611Z,41.40
2017-08-09T16:41:37.067Z,41.90
2017-08-09T16:44:03.529Z,42.00
2017-08-09T16:46:30.003Z,42.10
2017-08-09T16:48:56.451Z,42.00
2017-08-09T16:51:22.880Z,42.20
2017-08-09T16:54:02.522Z,41.80
2017-08-09T16:56:28.987Z,42.10
2017-08-09T16:59:09.292Z,42.30
2017-08-09T17:01:36.492Z,42.80
2017-08-09T17:04:02.943Z,42.80
2017-08-09T17:06:29.385Z,43.20
2017-08-09T17:08:55.844Z,42.80
2017-08-09T17:11:22.371Z,43.40
2017-08-09T17:13:49.602Z,43.40
2017-08-09T17:16:16.119Z,43.40
2017-08-09T17:18:42.557Z,43.70
2017-08-09T17:21:09.013Z,43.90
2017-08-09T17:23:35.472Z,44.00
2017-08-09T17:26:04.783Z,44.00
2017-08-09T17:28:31.241Z,44.60
2017-08-09T17:30:57.697Z,45.30
2017-08-09T17:33:24.174Z,45.20
2017-08-09T17:35:51.404Z,45.80
2017-08-09T17:38:25.500Z,47.20
2017-08-09T17:40:51.966Z,46.60
2017-08-09T17:43:19.178Z,46.70
2017-08-09T17:45:45.613Z,46.70
2017-08-09T17:48:12.101Z,46.90
2017-08-09T17:50:39.257Z,47.10
2017-08-09T17:53:05.694Z,47.10
2017-08-09T17:55:32.167Z,47.70
2017-08-09T17:57:58.603Z,47.90
2017-08-09T18:00:25.063Z,48.10
2017-08-09T18:02:51.503Z,48.20
2017-08-09T18:05:18.766Z,48.40
2017-08-09T18:07:45.292Z,48.40
2017-08-09T18:10:12.522Z,49.00
2017-08-09T18:12:39.065Z,49.00
2017-08-09T18:15:05.538Z,49.40
2017-08-09T18:17:32.029Z,49.40
2017-08-09T18:19:58.515Z,49.90
2017-08-09T18:22:25.032Z,50.20
2017-08-09T18:24:51.530Z,50.80
2017-08-09T18:27:18.026Z,50.90
2017-08-09T18:29:44.474Z,51.20
2017-08-09T18:32:10.920Z,51.60
2017-08-09T18:34:37.396Z,51.80
2017-08-09T18:37:04.571Z,52.20
2017-08-09T18:39:31.022Z,52.10
2017-08-09T18:41:57.487Z,52.50
2017-08-09T18:44:23.936Z,52.70
2017-08-09T18:46:50.377Z,53.20
2017-08-09T18:49:17.591Z,53.80
2017-08-09T18:51:44.038Z,53.80
2017-08-09T18:54:10.465Z,54.20
2017-08-09T18:56:36.909Z,54.30
2017-08-09T18:59:03.353Z,54.70
2017-08-09T19:01:29.788Z,54.70
2017-08-09T19:03:56.208Z,55.10
2017-08-09T19:06:22.896Z,55.50
2017-08-09T19:08:49.348Z,55.90
2017-08-09T19:11:15.816Z,56.30
2017-08-09T19:13:42.287Z,56.80
2017-08-09T19:16:08.758Z,56.90
2017-08-09T19:18:35.245Z,56.90
2017-08-09T19:21:02.488Z,57.60
2017-08-09T19:23:29.717Z,57.40
2017-08-09T19:25:56.177Z,57.60
2017-08-09T19:28:23.407Z,58.00
2017-08-09T19:30:49.902Z,58.00
2017-08-09T19:33:16.335Z,58.10
2017-08-09T19:35:42.797Z,58.00
2017-08-09T19:38:09.267Z,58.30
2017-08-09T19:40:35.754Z,58.30
2017-08-09T19:43:02.201Z,58.20
2017-08-09T19:45:28.659Z,57.80
2017-08-09T19:47:55.105Z,58.00
2017-08-09T19:50:22.279Z,58.80
2017-08-09T19:52:48.738Z,58.20
2017-08-09T19:55:15.210Z,58.50
2017-08-09T19:57:57.325Z,58.90
2017-08-09T20:00:24.524Z,59.90
2017-08-09T20:02:50.990Z,59.90
2017-08-09T20:05:17.474Z,59.90
2017-08-09T20:07:43.909Z,59.90
2017-08-09T20:10:10.352Z,59.90
2017-08-09T20:12:37.082Z,60.40
2017-08-09T20:15:03.576Z,60.10
2017-08-09T20:17:30.031Z,60.50
2017-08-09T20:19:56.472Z,60.80
2017-08-09T20:22:22.964Z,60.90
2017-08-09T20:24:49.599Z,61.10
2017-08-09T20:27:16.068Z,61.10
2017-08-09T20:29:43.265Z,61.50
2017-08-09T20:32:09.725Z,61.50
2017-08-09T20:34:36.166Z,61.60
2017-08-09T20:37:03.349Z,61.00
2017-08-09T20:39:29.994Z,60.90
2017-08-09T20:41:56.427Z,60.90
2017-08-09T20:44:22.884Z,61.20
2017-08-09T20:46:49.384Z,61.30
2017-08-09T20:49:15.864Z,61.20
2017-08-09T20:51:42.300Z,61.40
2017-08-09T20:54:08.774Z,61.20
2017-08-09T20:56:35.970Z,61.30
2017-08-09T20:59:02.410Z,61.20
2017-08-09T21:01:28.863Z,61.10
2017-08-09T21:03:55.324Z,62.00
2017-08-09T21:06:22.518Z,63.30
2017-08-09T21:08:48.974Z,63.20
2017-08-09T21:11:15.424Z,62.50
2017-08-09T21:13:41.891Z,62.70
2017-08-09T21:16:08.351Z,63.50
2017-08-09T21:18:34.796Z,63.80
2017-08-09T21:21:01.250Z,63.40
2017-08-09T21:23:27.702Z,63.40
2017-08-09T21:25:54.944Z,63.70
2017-08-09T21:28:21.395Z,63.70
2017-08-09T21:30:48.586Z,63.70
2017-08-09T21:33:15.044Z,63.60
2017-08-09T21:35:41.473Z,63.60
2017-08-09T21:38:07.926Z,64.40
2017-08-09T21:40:34.407Z,64.90
2017-08-09T21:43:00.860Z,64.50
2017-08-09T21:45:27.306Z,64.50
2017-08-09T21:47:53.768Z,65.20
2017-08-09T21:50:20.210Z,65.50
2017-08-09T21:52:46.647Z,66.00
2017-08-09T21:55:13.815Z,66.10
2017-08-09T21:57:40.284Z,66.10
2017-08-09T22:00:06.753Z,66.60
2017-08-09T22:02:33.217Z,66.70
2017-08-09T22:04:59.693Z,66.00
2017-08-09T22:07:26.172Z,66.10
2017-08-09T22:09:53.359Z,66.40
2017-08-09T22:12:19.805Z,66.30
2017-08-09T22:14:46.239Z,66.00
2017-08-09T22:17:12.671Z,66.30
2017-08-09T22:19:39.135Z,66.40
2017-08-09T22:22:05.601Z,66.30
2017-08-09T22:24:32.761Z,66.10
2017-08-09T22:26:59.184Z,66.10
2017-08-09T22:29:25.705Z,65.80
2017-08-09T22:31:52.933Z,65.90
2017-08-09T22:34:19.396Z,65.90
2017-08-09T22:36:46.562Z,66.00
2017-08-09T22:39:13.032Z,66.00
2017-08-09T22:41:39.504Z,66.40
2017-08-09T22:44:06.684Z,66.10
2017-08-09T22:46:33.118Z,66.60
2017-08-09T22:48:59.595Z,66.10
2017-08-09T22:51:26.061Z,66.20
2017-08-09T22:53:53.262Z,66.40
2017-08-09T22:56:19.723Z,66.40
2017-08-09T22:58:46.189Z,66.80
2017-08-09T23:01:13.361Z,67.70
2017-08-09T23:03:39.811Z,67.70
2017-08-09T23:06:06.281Z,68.00
2017-08-09T23:08:32.747Z,68.00
2017-08-09T23:10:59.245Z,67.50
2017-08-09T23:13:25.714Z,67.20
2017-08-09T23:15:52.143Z,66.70
2017-08-09T23:18:19.344Z,66.60
2017-08-09T23:20:45.789Z,66.60
2017-08-09T23:23:12.243Z,66.70
2017-08-09T23:25:38.708Z,65.20
2017-08-09T23:28:05.152Z,64.90
2017-08-09T23:30:31.632Z,64.60
2017-08-09T23:32:58.091Z,65.10
2017-08-09T23:35:25.299Z,65.00
2017-08-09T23:37:51.731Z,65.00
2017-08-09T23:40:18.203Z,65.50
2017-08-09T23:42:45.406Z,66.00
2017-08-09T23:45:11.852Z,66.20
2017-08-09T23:47:38.293Z,67.00
2017-08-09T23:50:04.728Z,67.70
2017-08-09T23:52:31.199Z,67.00
2017-08-09T23:54:58.374Z,66.60
2017-08-09T23:57:24.832Z,66.60
2017-08-09T23:59:51.257Z,66.90
